createdAt,value
2022-10-13T00:01:09.704Z,27.30
2022-10-13T00:03:40.315Z,27.30
2022-10-13T00:06:11.049Z,27.30
2022-10-13T00:08:41.335Z,27.30
2022-10-13T00:11:14.820Z,27.20
2022-10-13T00:13:44.112Z,27.20
2022-10-13T00:16:15.200Z,27.20
2022-10-13T00:18:43.634Z,27.20
2022-10-13T00:21:15.527Z,27.20
2022-10-13T00:23:44.675Z,27.20
2022-10-13T00:26:15.339Z,27.20
2022-10-13T00:28:45.516Z,27.20
2022-10-13T00:31:18.640Z,27.20
2022-10-13T00:33:46.663Z,27.20
2022-10-13T00:36:14.427Z,27.20
2022-10-13T00:38:44.078Z,27.20
2022-10-13T00:41:12.369Z,27.20
2022-10-13T00:43:54.789Z,27.20
2022-10-13T00:46:23.783Z,27.10
2022-10-13T00:48:53.578Z,27.10
2022-10-13T00:51:27.214Z,27.10
2022-10-13T00:53:57.628Z,27.10
2022-10-13T00:56:28.809Z,27.10
2022-10-13T00:58:57.530Z,27.10
2022-10-13T01:01:25.475Z,27.10
2022-10-13T01:03:53.303Z,27.10
2022-10-13T01:06:23.712Z,27.10
2022-10-13T01:08:52.015Z,27.10
2022-10-13T01:11:56.200Z,27.10
2022-10-13T01:14:33.379Z,27.10
2022-10-13T01:17:12.681Z,27.10
2022-10-13T01:20:18.156Z,27.10
2022-10-13T01:23:01.383Z,27.10
2022-10-13T01:25:52.622Z,27.00
2022-10-13T01:28:51.792Z,27.00
2022-10-13T01:31:31.787Z,27.10
2022-10-13T01:34:09.878Z,27.00
2022-10-13T01:37:00.571Z,27.00
2022-10-13T01:39:41.187Z,27.00
2022-10-13T01:42:18.262Z,27.00
2022-10-13T01:44:52.597Z,27.00
2022-10-13T01:47:23.887Z,27.00
2022-10-13T01:49:54.059Z,27.00
2022-10-13T01:52:27.303Z,27.00
2022-10-13T01:54:55.875Z,26.90
2022-10-13T01:57:35.614Z,26.90
2022-10-13T02:00:08.631Z,26.90
2022-10-13T02:02:48.175Z,26.90
2022-10-13T02:05:27.504Z,26.90
2022-10-13T02:08:03.660Z,26.90
2022-10-13T02:10:42.744Z,26.90
2022-10-13T02:13:16.958Z,26.90
2022-10-13T02:15:50.287Z,26.90
2022-10-13T02:18:26.588Z,26.90
2022-10-13T02:20:56.156Z,26.90
2022-10-13T02:23:25.102Z,26.90
2022-10-13T02:25:52.909Z,26.90
2022-10-13T02:28:21.259Z,26.90
2022-10-13T02:30:49.058Z,26.90
2022-10-13T02:33:19.215Z,26.90
2022-10-13T02:35:46.988Z,26.90
2022-10-13T02:38:14.708Z,26.90
2022-10-13T02:40:42.479Z,26.80
2022-10-13T02:43:10.237Z,26.80
2022-10-13T02:45:38.006Z,26.80
2022-10-13T02:48:06.234Z,26.80
2022-10-13T02:50:35.801Z,26.80
2022-10-13T02:53:03.591Z,26.80
2022-10-13T02:55:31.399Z,26.80
2022-10-13T02:57:59.286Z,26.80
2022-10-13T03:00:27.344Z,26.80
2022-10-13T03:02:55.123Z,26.80
2022-10-13T03:05:22.856Z,26.80
2022-10-13T03:07:51.968Z,26.80
2022-10-13T03:10:19.726Z,26.80
2022-10-13T03:12:47.416Z,26.80
2022-10-13T03:15:15.253Z,26.80
2022-10-13T03:17:43.007Z,26.80
2022-10-13T03:20:11.568Z,26.80
2022-10-13T03:22:39.350Z,26.80
2022-10-13T03:25:09.804Z,26.70
2022-10-13T03:27:37.579Z,26.70
2022-10-13T03:30:06.491Z,26.70
2022-10-13T03:32:34.330Z,26.70
2022-10-13T03:35:02.150Z,26.70
2022-10-13T03:37:30.746Z,26.70
2022-10-13T03:39:58.620Z,26.70
2022-10-13T03:42:27.729Z,26.70
2022-10-13T03:44:56.637Z,26.70
2022-10-13T03:47:24.614Z,26.70
2022-10-13T03:49:55.090Z,26.70
2022-10-13T03:52:23.054Z,26.70
2022-10-13T03:54:51.044Z,26.70
2022-10-13T03:57:18.809Z,26.70
2022-10-13T03:59:47.943Z,26.70
2022-10-13T04:02:15.715Z,26.70
2022-10-13T04:04:43.435Z,26.70
2022-10-13T04:07:11.273Z,26.70
2022-10-13T04:09:39.010Z,26.70
2022-10-13T04:12:07.266Z,26.70
2022-10-13T04:14:35.257Z,26.60
2022-10-13T04:17:04.331Z,26.60
2022-10-13T04:19:32.107Z,26.60
2022-10-13T04:21:59.866Z,26.60
2022-10-13T04:24:27.612Z,26.60
2022-10-13T04:26:55.398Z,26.60
2022-10-13T04:29:25.095Z,26.60
2022-10-13T04:31:52.905Z,26.60
2022-10-13T04:34:22.002Z,26.60
2022-10-13T04:36:51.388Z,26.60
2022-10-13T04:39:19.311Z,26.60
2022-10-13T04:41:47.033Z,26.60
2022-10-13T04:44:14.859Z,26.60
2022-10-13T04:46:43.014Z,26.60
2022-10-13T04:49:10.780Z,26.60
2022-10-13T04:51:39.897Z,26.60
2022-10-13T04:54:07.686Z,26.60
2022-10-13T04:56:35.629Z,26.60
2022-10-13T04:59:05.795Z,26.60
2022-10-13T05:01:35.990Z,26.60
2022-10-13T05:04:05.840Z,26.70
2022-10-13T05:06:48.632Z,26.70
2022-10-13T05:09:25.873Z,26.70
2022-10-13T05:11:54.826Z,26.70
2022-10-13T05:14:22.644Z,26.70
2022-10-13T05:16:50.469Z,26.70
2022-10-13T05:19:18.275Z,26.80
2022-10-13T05:21:46.034Z,26.80
2022-10-13T05:24:15.728Z,26.80
2022-10-13T05:26:44.815Z,26.80
2022-10-13T05:29:12.621Z,26.80
2022-10-13T05:31:42.293Z,26.80
2022-10-13T05:34:10.386Z,26.80
2022-10-13T05:36:38.153Z,26.80
2022-10-13T05:39:08.400Z,26.80
2022-10-13T05:41:36.251Z,26.80
2022-10-13T05:44:09.279Z,26.80
2022-10-13T05:46:37.627Z,26.80
2022-10-13T05:49:05.677Z,26.80
2022-10-13T05:51:37.701Z,26.80
2022-10-13T05:54:11.274Z,26.80
2022-10-13T05:56:46.818Z,26.80
2022-10-13T05:59:24.590Z,26.80
2022-10-13T06:01:55.383Z,26.80
2022-10-13T06:04:30.706Z,26.80
2022-10-13T06:06:58.633Z,26.80
2022-10-13T06:09:28.382Z,26.80
2022-10-13T06:11:56.135Z,26.80
2022-10-13T06:14:25.209Z,26.80
2022-10-13T06:16:52.975Z,26.80
2022-10-13T06:19:20.722Z,26.80
2022-10-13T06:21:48.569Z,26.80
2022-10-13T06:24:16.389Z,26.80
2022-10-13T06:26:44.211Z,26.80
2022-10-13T06:29:12.060Z,26.80
2022-10-13T06:31:41.245Z,26.80
2022-10-13T06:34:09.042Z,26.80
2022-10-13T06:36:36.815Z,26.80
2022-10-13T06:39:04.779Z,26.80
2022-10-13T06:41:32.517Z,26.80
2022-10-13T06:44:00.254Z,26.80
2022-10-13T06:46:28.137Z,26.80
2022-10-13T06:48:57.214Z,26.80
2022-10-13T06:51:25.318Z,26.80
2022-10-13T06:53:53.066Z,26.80
2022-10-13T06:56:20.824Z,26.80
2022-10-13T06:58:48.935Z,26.80
2022-10-13T07:01:16.956Z,26.80
2022-10-13T07:03:44.671Z,26.80
2022-10-13T07:06:13.811Z,26.80
2022-10-13T07:08:41.544Z,26.80
2022-10-13T07:11:15.872Z,26.80
2022-10-13T07:13:46.856Z,26.80
2022-10-13T07:16:16.095Z,26.80
2022-10-13T07:18:43.960Z,26.80
2022-10-13T07:21:13.117Z,26.80
2022-10-13T07:23:41.163Z,26.80
2022-10-13T07:26:10.742Z,26.80
2022-10-13T07:28:39.596Z,26.80
2022-10-13T07:31:13.579Z,26.80
2022-10-13T07:33:42.870Z,26.80
2022-10-13T07:36:11.696Z,26.80
2022-10-13T07:38:41.382Z,26.80
2022-10-13T07:41:11.701Z,26.80
2022-10-13T07:43:40.491Z,26.80
2022-10-13T07:46:09.268Z,26.80
2022-10-13T07:48:37.589Z,26.80
2022-10-13T07:51:08.129Z,26.80
2022-10-13T07:53:36.282Z,26.80
2022-10-13T07:56:11.536Z,26.80
2022-10-13T07:58:41.291Z,26.80
2022-10-13T08:01:10.443Z,26.80
2022-10-13T08:03:40.953Z,26.70
2022-10-13T08:06:11.526Z,26.70
2022-10-13T08:08:40.319Z,26.70
2022-10-13T08:11:16.465Z,26.60
2022-10-13T08:13:48.798Z,26.60
2022-10-13T08:16:16.628Z,26.50
2022-10-13T08:18:44.525Z,26.50
2022-10-13T08:21:45.710Z,26.40
2022-10-13T08:24:06.152Z,26.40
2022-10-13T08:26:35.308Z,26.40
2022-10-13T08:29:20.355Z,26.30
2022-10-13T08:34:23.637Z,26.30
2022-10-13T08:36:53.510Z,26.30
2022-10-13T08:39:22.016Z,26.30
2022-10-13T08:41:52.265Z,26.30
2022-10-13T08:45:10.932Z,26.30
2022-10-13T08:47:30.086Z,26.30
2022-10-13T08:50:02.261Z,26.30
2022-10-13T08:52:46.085Z,26.30
2022-10-13T08:55:24.700Z,26.30
2022-10-13T08:57:54.416Z,26.30
2022-10-13T09:00:22.347Z,26.40
2022-10-13T09:02:51.329Z,26.40
2022-10-13T09:05:33.166Z,26.40
2022-10-13T09:08:01.062Z,26.40
2022-10-13T09:10:28.834Z,26.40
2022-10-13T09:13:01.010Z,26.40
2022-10-13T09:15:28.800Z,26.40
2022-10-13T09:18:12.590Z,26.40
2022-10-13T09:20:42.064Z,26.40
2022-10-13T09:23:21.776Z,26.40
2022-10-13T09:25:52.528Z,26.40
2022-10-13T09:28:26.718Z,26.40
2022-10-13T09:31:07.248Z,26.50
2022-10-13T09:33:39.020Z,26.50
2022-10-13T09:36:14.317Z,26.50
2022-10-13T09:38:46.210Z,26.50
2022-10-13T09:41:20.644Z,26.50
2022-10-13T09:44:14.900Z,26.50
2022-10-13T09:46:51.481Z,26.60
2022-10-13T09:49:37.680Z,26.60
2022-10-13T09:52:15.882Z,26.60
2022-10-13T09:54:48.981Z,26.60
2022-10-13T09:57:32.019Z,26.60
2022-10-13T10:00:13.898Z,26.60
2022-10-13T10:02:52.324Z,26.60
2022-10-13T10:05:26.779Z,26.60
2022-10-13T10:08:00.016Z,26.60
2022-10-13T10:10:34.887Z,26.60
2022-10-13T10:13:03.463Z,26.70
2022-10-13T10:15:56.824Z,26.70
2022-10-13T10:18:37.613Z,26.70
2022-10-13T10:21:14.898Z,26.70
2022-10-13T10:23:52.438Z,26.70
2022-10-13T10:26:32.341Z,26.70
2022-10-13T10:29:21.060Z,26.70
2022-10-13T10:32:15.792Z,26.70
2022-10-13T10:34:54.289Z,26.70
2022-10-13T10:37:44.444Z,26.70
2022-10-13T10:40:32.231Z,26.80
2022-10-13T10:43:31.870Z,26.80
2022-10-13T10:46:01.233Z,26.80
2022-10-13T10:48:36.896Z,26.80
2022-10-13T10:51:08.164Z,26.80
2022-10-13T10:53:46.012Z,26.80
2022-10-13T10:56:22.466Z,26.80
2022-10-13T10:59:05.281Z,26.80
2022-10-13T11:01:45.458Z,26.80
2022-10-13T11:04:43.940Z,26.80
2022-10-13T11:07:15.883Z,26.80
2022-10-13T11:10:21.213Z,26.80
2022-10-13T11:13:18.022Z,26.80
2022-10-13T11:15:47.800Z,26.80
2022-10-13T11:18:58.927Z,26.80
2022-10-13T11:22:06.535Z,26.80
2022-10-13T11:24:58.285Z,26.80
2022-10-13T11:27:39.027Z,26.90
2022-10-13T11:30:50.923Z,26.90
2022-10-13T11:33:53.665Z,26.90
2022-10-13T11:36:51.140Z,26.90
2022-10-13T11:40:01.940Z,26.90
2022-10-13T11:43:25.913Z,26.90
2022-10-13T11:46:26.635Z,26.90
2022-10-13T11:49:47.398Z,26.90
2022-10-13T11:52:54.585Z,26.90
2022-10-13T11:55:39.802Z,26.90
2022-10-13T11:58:15.380Z,26.90
2022-10-13T12:00:53.278Z,26.90
2022-10-13T12:03:23.845Z,26.90
2022-10-13T12:05:52.397Z,26.90
2022-10-13T12:08:22.335Z,27.00
2022-10-13T12:10:57.241Z,26.90
2022-10-13T12:13:28.231Z,27.00
2022-10-13T12:16:03.087Z,27.00
2022-10-13T12:18:34.675Z,27.00
2022-10-13T12:21:10.095Z,27.00
2022-10-13T12:23:39.822Z,27.00
2022-10-13T12:26:07.804Z,27.00
2022-10-13T12:28:51.487Z,27.00
2022-10-13T12:31:23.437Z,27.00
2022-10-13T12:33:56.791Z,27.10
2022-10-13T12:36:30.911Z,27.10
2022-10-13T12:39:06.013Z,27.10
2022-10-13T12:41:37.649Z,27.10
2022-10-13T12:44:08.515Z,27.10
2022-10-13T12:46:36.997Z,27.10
2022-10-13T12:49:13.713Z,27.10
2022-10-13T12:51:44.119Z,27.10
2022-10-13T12:54:22.857Z,27.10
2022-10-13T12:56:56.356Z,27.10
2022-10-13T12:59:26.953Z,27.10
2022-10-13T13:02:00.150Z,27.10
2022-10-13T13:04:44.323Z,27.10
2022-10-13T13:07:33.700Z,27.10
2022-10-13T13:10:16.107Z,27.10
2022-10-13T13:12:45.122Z,27.10
2022-10-13T13:15:36.823Z,27.10
2022-10-13T13:18:30.137Z,27.10
2022-10-13T13:20:58.175Z,27.10
2022-10-13T13:23:33.189Z,27.10
2022-10-13T13:26:07.992Z,27.10
2022-10-13T13:28:35.834Z,27.10
2022-10-13T13:31:03.873Z,27.10
2022-10-13T13:33:31.575Z,27.10
2022-10-13T13:35:59.458Z,27.10
2022-10-13T13:38:27.302Z,27.10
2022-10-13T13:40:55.083Z,27.10
2022-10-13T13:43:24.166Z,27.10
2022-10-13T13:45:51.988Z,27.10
2022-10-13T13:48:19.699Z,27.10
2022-10-13T13:50:47.475Z,27.10
2022-10-13T13:53:15.188Z,27.10
2022-10-13T13:55:45.478Z,27.10
2022-10-13T13:58:13.203Z,27.10
2022-10-13T14:00:42.550Z,27.10
2022-10-13T14:03:10.290Z,27.10
2022-10-13T14:05:40.031Z,27.10
2022-10-13T14:08:08.945Z,27.10
2022-10-13T14:10:36.851Z,27.10
2022-10-13T14:13:05.101Z,27.10
2022-10-13T14:15:32.907Z,27.10
2022-10-13T14:18:02.021Z,27.10
2022-10-13T14:20:29.737Z,27.10
2022-10-13T14:22:57.479Z,27.10
2022-10-13T14:25:25.390Z,27.10
2022-10-13T14:27:53.199Z,27.10
2022-10-13T14:30:21.012Z,27.10
2022-10-13T14:32:48.780Z,27.10
2022-10-13T14:35:17.984Z,27.10
2022-10-13T14:37:45.741Z,27.10
2022-10-13T14:40:13.505Z,27.10
2022-10-13T14:42:42.496Z,27.10
2022-10-13T14:45:13.024Z,27.10
2022-10-13T14:47:40.789Z,27.10
2022-10-13T14:50:09.670Z,27.10
2022-10-13T14:52:38.767Z,27.10
2022-10-13T14:55:07.278Z,27.10
2022-10-13T14:57:35.072Z,27.10
2022-10-13T15:00:03.103Z,27.00
2022-10-13T15:02:31.134Z,27.00
2022-10-13T15:04:58.868Z,27.00
2022-10-13T15:07:26.666Z,27.00
2022-10-13T15:10:11.232Z,27.00
2022-10-13T15:12:39.164Z,27.10
2022-10-13T15:15:07.749Z,27.00
2022-10-13T15:17:36.923Z,27.00
2022-10-13T15:20:05.981Z,27.00
2022-10-13T15:22:33.751Z,27.00
2022-10-13T15:25:04.409Z,27.00
2022-10-13T15:27:32.158Z,27.00
2022-10-13T15:30:00.005Z,27.00
2022-10-13T15:32:28.021Z,27.00
2022-10-13T15:34:55.889Z,27.00
2022-10-13T15:37:23.675Z,27.00
2022-10-13T15:39:56.849Z,27.00
2022-10-13T15:42:26.725Z,27.00
2022-10-13T15:45:09.288Z,27.00
2022-10-13T15:47:38.217Z,27.00
2022-10-13T15:50:06.931Z,27.00
2022-10-13T15:52:39.790Z,27.00
2022-10-13T15:55:08.838Z,27.00
2022-10-13T15:57:38.109Z,27.00
2022-10-13T16:00:08.716Z,27.00
2022-10-13T16:02:36.427Z,27.00
2022-10-13T16:05:05.367Z,27.00
2022-10-13T16:07:33.439Z,27.00
2022-10-13T16:10:02.127Z,27.00
2022-10-13T16:12:30.350Z,26.90
2022-10-13T16:14:59.425Z,26.90
2022-10-13T16:17:27.213Z,26.90
2022-10-13T16:19:55.043Z,26.90
2022-10-13T16:22:23.372Z,26.90
2022-10-13T16:24:51.344Z,26.90
2022-10-13T16:27:19.335Z,26.90
2022-10-13T16:29:47.032Z,26.90
2022-10-13T16:32:16.431Z,26.90
2022-10-13T16:34:44.213Z,26.90
2022-10-13T16:37:12.084Z,26.90
2022-10-13T16:39:43.153Z,26.90
2022-10-13T16:42:12.458Z,26.90
2022-10-13T16:44:40.720Z,26.90
2022-10-13T16:47:08.485Z,26.90
2022-10-13T16:49:37.566Z,26.90
2022-10-13T16:52:05.425Z,26.90
2022-10-13T16:54:33.574Z,26.90
2022-10-13T16:57:01.393Z,26.90
2022-10-13T16:59:29.713Z,26.80
2022-10-13T17:01:59.260Z,26.80
2022-10-13T17:04:27.202Z,26.80
2022-10-13T17:06:56.415Z,26.80
2022-10-13T17:09:24.165Z,26.80
2022-10-13T17:11:51.932Z,26.80
2022-10-13T17:14:20.041Z,26.80
2022-10-13T17:16:47.810Z,26.80
2022-10-13T17:19:15.542Z,26.80
2022-10-13T17:21:44.456Z,26.80
2022-10-13T17:24:13.740Z,26.80
2022-10-13T17:26:41.478Z,26.80
2022-10-13T17:29:09.364Z,26.80
2022-10-13T17:31:37.264Z,26.80
2022-10-13T17:34:06.100Z,26.80
2022-10-13T17:36:34.345Z,26.80
2022-10-13T17:39:06.491Z,26.80
2022-10-13T17:41:36.264Z,26.80
2022-10-13T17:44:04.149Z,26.80
2022-10-13T17:46:38.473Z,26.80
2022-10-13T17:49:08.230Z,26.80
2022-10-13T17:51:36.293Z,26.80
2022-10-13T17:54:04.880Z,26.80
2022-10-13T17:56:32.746Z,26.80
2022-10-13T17:59:02.279Z,26.80
2022-10-13T18:01:34.897Z,26.80
2022-10-13T18:04:08.807Z,26.80
2022-10-13T18:06:40.584Z,26.80
2022-10-13T18:09:12.101Z,26.80
2022-10-13T18:11:42.498Z,26.80
2022-10-13T18:14:15.273Z,26.80
2022-10-13T18:16:43.661Z,26.80
2022-10-13T18:19:11.644Z,26.80
2022-10-13T18:21:39.475Z,26.80
2022-10-13T18:24:08.411Z,26.80
2022-10-13T18:26:36.221Z,26.80
2022-10-13T18:29:05.729Z,26.80
2022-10-13T18:31:37.141Z,26.80
2022-10-13T18:34:07.800Z,26.80
2022-10-13T18:36:38.525Z,26.80
2022-10-13T18:39:08.957Z,26.80
2022-10-13T18:41:38.105Z,26.90
2022-10-13T18:44:06.808Z,26.90
2022-10-13T18:46:37.961Z,26.90
2022-10-13T18:49:06.262Z,26.90
2022-10-13T18:51:36.194Z,26.90
2022-10-13T18:54:05.902Z,26.90
2022-10-13T18:56:36.740Z,26.90
2022-10-13T18:59:06.083Z,26.90
2022-10-13T19:01:37.593Z,27.00
2022-10-13T19:04:06.577Z,27.00
2022-10-13T19:06:35.434Z,27.00
2022-10-13T19:09:06.962Z,27.00
2022-10-13T19:11:35.947Z,27.00
2022-10-13T19:14:05.480Z,27.00
2022-10-13T19:16:39.671Z,27.00
2022-10-13T19:19:09.041Z,27.00
2022-10-13T19:21:38.142Z,27.00
2022-10-13T19:24:07.384Z,27.10
2022-10-13T19:26:37.596Z,27.10
2022-10-13T19:29:09.075Z,27.10
2022-10-13T19:31:40.767Z,27.10
2022-10-13T19:34:10.108Z,27.10
2022-10-13T19:36:41.502Z,27.10
2022-10-13T19:39:15.423Z,27.10
2022-10-13T19:41:44.976Z,27.10
2022-10-13T19:44:13.413Z,27.10
2022-10-13T19:46:45.009Z,27.10
2022-10-13T19:49:16.698Z,27.10
2022-10-13T19:51:45.130Z,27.20
2022-10-13T19:54:13.350Z,27.10
2022-10-13T19:56:41.134Z,27.20
2022-10-13T19:59:08.985Z,27.20
2022-10-13T20:01:39.845Z,27.20
2022-10-13T20:04:09.368Z,27.20
2022-10-13T20:06:38.389Z,27.20
2022-10-13T20:09:06.992Z,27.20
2022-10-13T20:11:34.753Z,27.20
2022-10-13T20:14:02.690Z,27.20
2022-10-13T20:16:30.563Z,27.20
2022-10-13T20:19:00.754Z,27.20
2022-10-13T20:21:30.731Z,27.20
2022-10-13T20:23:58.832Z,27.20
2022-10-13T20:26:27.051Z,27.20
2022-10-13T20:28:55.962Z,27.20
2022-10-13T20:31:24.527Z,27.20
2022-10-13T20:33:56.584Z,27.30
2022-10-13T20:36:26.885Z,27.30
2022-10-13T20:38:56.371Z,27.30
2022-10-13T20:41:26.149Z,27.30
2022-10-13T20:43:56.436Z,27.30
2022-10-13T20:46:25.128Z,27.30
2022-10-13T20:49:11.974Z,27.30
2022-10-13T20:51:41.473Z,27.30
2022-10-13T20:54:11.839Z,27.30
2022-10-13T20:56:40.384Z,27.30
2022-10-13T20:59:11.298Z,27.30
2022-10-13T21:01:39.297Z,27.30
2022-10-13T21:04:07.651Z,27.40
2022-10-13T21:06:36.685Z,27.40
2022-10-13T21:09:06.014Z,27.30
2022-10-13T21:11:35.987Z,27.30
2022-10-13T21:14:06.462Z,27.30
2022-10-13T21:16:34.675Z,27.30
2022-10-13T21:19:02.793Z,27.30
2022-10-13T21:21:33.542Z,27.30
2022-10-13T21:24:06.075Z,27.30
2022-10-13T21:26:36.127Z,27.30
2022-10-13T21:29:04.527Z,27.30
2022-10-13T21:31:32.473Z,27.30
2022-10-13T21:34:00.820Z,27.30
2022-10-13T21:36:31.225Z,27.20
2022-10-13T21:39:02.142Z,27.20
2022-10-13T21:41:29.909Z,27.30
2022-10-13T21:44:00.339Z,27.30
2022-10-13T21:46:30.005Z,27.30
2022-10-13T21:49:00.489Z,27.20
2022-10-13T21:51:32.065Z,27.20
2022-10-13T21:54:02.747Z,27.20
2022-10-13T21:56:32.163Z,27.20
2022-10-13T21:59:02.509Z,27.20
2022-10-13T22:01:30.626Z,27.20
2022-10-13T22:04:01.228Z,27.20
2022-10-13T22:06:31.779Z,27.20
2022-10-13T22:09:02.800Z,27.10
2022-10-13T22:11:32.757Z,27.20
2022-10-13T22:14:02.367Z,27.20
2022-10-13T22:16:33.747Z,27.20
2022-10-13T22:19:01.830Z,27.10
2022-10-13T22:21:32.582Z,27.10
2022-10-13T22:24:03.254Z,27.10
2022-10-13T22:26:34.192Z,27.10
2022-10-13T22:29:05.142Z,27.10
2022-10-13T22:31:33.578Z,27.10
2022-10-13T22:34:03.180Z,27.10
2022-10-13T22:36:31.810Z,27.10
2022-10-13T22:39:02.925Z,27.00
2022-10-13T22:41:32.298Z,27.00
2022-10-13T22:44:01.519Z,27.00
2022-10-13T22:46:34.308Z,27.00
2022-10-13T22:49:02.956Z,27.00
2022-10-13T22:51:33.649Z,27.00
2022-10-13T22:54:02.067Z,27.00
2022-10-13T22:56:32.338Z,27.00
2022-10-13T22:59:03.619Z,26.90
2022-10-13T23:01:32.766Z,27.00
2022-10-13T23:04:00.836Z,26.90
2022-10-13T23:06:32.475Z,26.90
2022-10-13T23:09:02.270Z,26.90
2022-10-13T23:11:30.493Z,26.90
2022-10-13T23:13:58.437Z,26.90
2022-10-13T23:16:28.425Z,26.90
2022-10-13T23:18:57.605Z,26.90
2022-10-13T23:21:29.162Z,26.90
2022-10-13T23:23:58.605Z,26.90
2022-10-13T23:26:27.325Z,26.90
2022-10-13T23:28:56.448Z,26.90
2022-10-13T23:31:24.582Z,26.90
2022-10-13T23:33:52.786Z,26.80
2022-10-13T23:36:25.443Z,26.80
2022-10-13T23:38:56.399Z,26.80
2022-10-13T23:41:24.311Z,26.80
2022-10-13T23:43:52.221Z,26.90
2022-10-13T23:46:20.538Z,26.80
2022-10-13T23:48:48.411Z,26.80
2022-10-13T23:51:19.453Z,26.80
2022-10-13T23:53:48.796Z,26.80
2022-10-13T23:56:16.918Z,26.80
2022-10-13T23:58:45.641Z,26.80
